Portada
METAR-TAF:

METAR-TAF

Aeroports :

Pacific Missile Test Facility Barking Sands

Kekaha, Hawaii, Estats Units d'Amèrica

latitud: 22-02-11N, longitud: 159-47-11W, altitud: 4 m

Observació

L'informe es va fer fa 15 minuts, a les 04:51 UTC
Vent 6 kt del Sud/Sud-Est
Temperatura 23°C
Humitat 78%
Pressió 1015 hPa
Visibilitat: 11.3 km
Escasses núvols a una alçada de 9000 ft
Cel ennuvolat a una alçada de 11000 ft
pluja

METAR: PHBK 070451Z AUTO 15006KT 7SM RA FEW090 BKN110 23/19 A2996 RMK AO2 RAB20 SLP148 P0002 T02330194

Hora: 19:06 (05:06 UTC)


TAF: manca

Observacions i pronòstics meteorològics de més de 4000 aeroports (METAR i TAF).

Les estacions disponibles són els punts grocs i vermells al mapa.

Posi el ratolí al punt desitjat per veure el nom de l'estació.

Feu clic per veure les observacions i els pronòstics meteorològics.

Per canviar el mapa: feu clic els botons verds amb una creu de color negre per apropar; al botó verd amb un guió per allunyar la imatge; o en les fletxes verdes per a mapes adjacents.


METAR-TAF: